This is the latest recevied weather packets stored in our database for station/object EA6AMI-5. If no packets are shown the sender has not sent any weather packets the latest 10 day(s).
| Time | Temp. | Humidity | Pressure | Rain* | Wind** | Luminosity | Snow |
|---|---|---|---|---|---|---|---|
| 1787576043 | 26.67° C | 87% | 1013.3 hPa | 0 mm | - | 51 W/m² | - |
| 1787575503 | 26.67° C | 85% | 1016.4 hPa | 0.25 mm | - | 43 W/m² | - |
| 1787574963 | 26.67° C | 85% | 1016.3 hPa | 0.25 mm | - | 23 W/m² | - |
| 1787574423 | 26.67° C | 85% | 1016.6 hPa | 0.51 mm | - | 37 W/m² | - |
| 1787573883 | 26.67° C | 86% | 1015.4 hPa | 0.51 mm | - | 137 W/m² | - |
| 1787573343 | 25.56° C | 88% | 1014.7 hPa | 0.51 mm | - | 240 W/m² | - |
| 1787572803 | 26.11° C | 88% | 1013.1 hPa | 0.51 mm | - | 103 W/m² | - |
| 1787572443 | 26.67° C | 87% | 1013.2 hPa | 0.25 mm | - | 35 W/m² | - |
| 1787571903 | 26.67° C | 85% | 1016.5 hPa | 0 mm | - | 13 W/m² | - |
| 1787571363 | 27.22° C | 84% | 1015.2 hPa | 0 mm | - | 23 W/m² | - |
| 1787570824 | 27.22° C | 82% | 1014.2 hPa | 0 mm | - | 51 W/m² | - |
| 1787570283 | 27.22° C | 81% | 1015.2 hPa | 0 mm | - | 40 W/m² | - |
| 1787569743 | 27.22° C | 83% | 1015.1 hPa | 0 mm | - | 51 W/m² | - |
| 1787569203 | 27.22° C | 82% | 1015.4 hPa | 0 mm | - | 82 W/m² | - |
| 1787568843 | 27.22° C | 81% | 1014.7 hPa | 0 mm | - | 99 W/m² | - |
| 1787568303 | 27.22° C | 81% | 1015.5 hPa | 0 mm | - | 56 W/m² | - |
| 1787567763 | 26.67° C | 82% | 1016.5 hPa | 0 mm | - | 380 W/m² | - |
| 1787567223 | 27.22° C | 82% | 1016.1 hPa | 0 mm | - | 81 W/m² | - |
| 1787566684 | 27.22° C | 82% | 1015.5 hPa | 0 mm | - | 102 W/m² | - |
| 1787566144 | 27.22° C | 84% | 1015.4 hPa | 0 mm | - | 126 W/m² | - |
| 1787565603 | 27.22° C | 83% | 1015.5 hPa | 0 mm | - | 270 W/m² | - |
| 1787565243 | 27.22° C | 82% | 1016.1 hPa | 0.25 mm | - | 140 W/m² | - |
| 1787564703 | 27.22° C | 81% | 1016.7 hPa | 1.02 mm | - | 24 W/m² | - |
| 1787564164 | 27.22° C | 83% | 1016.1 hPa | 1.02 mm | - | 75 W/m² | - |
| 1787563623 | 26.11° C | 86% | 1015.6 hPa | 1.02 mm | - | 508 W/m² | - |
* Rain latest hour (hover to see other rain measurements)
** Current wind speed in m/s (hover to see current wind gust speed)